Terminal Aerodrome Forecast
Issued by NWS Wilmington, OH

Home | Current Version | Previous Version | Text Only | Print | Product List | Glossary On
Versions: 1 2 3 4 5 6 7 8 9 10 11 12 13 14 15 16
718
FTUS41 KILN 121123
TAFDAY
TAF
KDAY 121123Z 1212/1312 19006KT P6SM FEW050 OVC080
     FM121500 24008KT P6SM BKN035
     FM122000 28012G22KT 5SM -SHSN OVC018
     FM122300 30018G29KT 2SM -SHSN OVC018
     FM130300 31016G25KT 5SM -SHSN OVC025=

USA.gov is the U.S. government's official web portal to all federal, state and local government web resources and services.